Kennedy — PB7633 — position and weather

sailwx.info

Track history (hours):
 
Tides and Currents Weather Stations Pressure Air Temp Water Temp Dewpoint Dewpoint Depression Visibility Wind Speed Wind Dir Waves Ship Positions

Kennedy

Last reported at 2017-Mar-01 18:16 UTC. Time now 2017-Mar-30 16:37 UTC.
Position N 37°58' W 000°41'.
Warning: this ship's position is 28 days out of date.

Length 15 m.

Type: Sailing vessel. MMSI: 245144000.

Date/timePositionNaut miles runAvg speedWind from/ knotsBaromVisibWave heightAir tempDewpointWater temp
2017-Mar-01 18:16N 37°58' W 000°41'0 0.0
2017-Mar-01 17:28N 37°58' W 000°41'0 0.0
2017-Mar-01 16:22N 37°58' W 000°41'0 0.0
2017-Mar-01 15:31N 37°58' W 000°41'0 0.0
2017-Mar-01 14:31N 37°58' W 000°41'0 0.0
2017-Mar-01 13:28N 37°58' W 000°41'0 0.0
2017-Mar-01 12:31N 37°58' W 000°41'0 0.0
2017-Mar-01 11:28N 37°58' W 000°41'0 0.0
2017-Mar-01 10:19N 37°58' W 000°41'0 0.0
2017-Mar-01 09:31N 37°58' W 000°41'0 0.0
2017-Mar-01 08:31N 37°58' W 000°41'0 0.2
2017-Mar-01 07:32N 37°58' W 000°41'0 0.0
2017-Mar-01 05:32N 37°58' W 000°41'0 0.0
2017-Mar-01 04:29N 37°58' W 000°41'0 0.0
2017-Mar-01 03:23N 37°58' W 000°41'0 0.0
2017-Mar-01 02:29N 37°58' W 000°41'0 0.0
2017-Mar-01 01:26N 37°58' W 000°41'0 0.0
2017-Mar-01 00:32N 37°58' W 000°41'0 0.0
2017-Feb-28 23:32N 37°58' W 000°41'0 0.0
2017-Feb-28 22:14N 37°58' W 000°41'0 0.0
2017-Feb-28 21:26N 37°58' W 000°41'0 0.0
2017-Feb-28 20:26N 37°58' W 000°41'5 3.7
2017-Feb-28 19:13N 37°54' W 000°42'5 7.4
2017-Feb-28 18:33N 37°49' W 000°43'7 7.0
2017-Feb-28 17:32N 37°42' W 000°43'  
2017-Feb-26 09:33N 36°12' W 005°12'6 5.7
2017-Feb-26 08:33N 36°09' W 005°18'4 4.2
2017-Feb-26 07:33N 36°07' W 005°22'3 2.7
2017-Feb-26 06:33N 36°10' W 005°22'0 0.0
2017-Feb-26 05:33N 36°10' W 005°22'0 0.0
2017-Feb-26 04:32N 36°10' W 005°22'0 0.0
2017-Feb-26 03:33N 36°10' W 005°22'0 0.0
2017-Feb-26 02:33N 36°10' W 005°22'0 0.0
2017-Feb-26 01:33N 36°10' W 005°22'0 0.0
2017-Feb-26 00:32N 36°10' W 005°22'0 0.0
2017-Feb-25 23:33N 36°10' W 005°22'0 0.0
2017-Feb-25 22:33N 36°10' W 005°22'0 0.0
2017-Feb-25 21:33N 36°10' W 005°22'0 0.0
2017-Feb-25 20:33N 36°10' W 005°22'0 0.0
2017-Feb-25 19:33N 36°10' W 005°22'0 0.0
2017-Feb-25 18:33N 36°10' W 005°22'0 0.0
2017-Feb-25 17:33N 36°10' W 005°22'0 0.0
2017-Feb-25 16:33N 36°10' W 005°22'0 0.0
2017-Feb-25 15:33N 36°10' W 005°22'5 4.8
2017-Feb-25 14:33N 36°05' W 005°23'  
Track history (hours):
 
Tides and Currents Weather Stations Pressure Air Temp Water Temp Dewpoint Dewpoint Depression Visibility Wind Speed Wind Dir Waves Ship Positions

Kennedy

Last reported at 2017-Mar-01 18:16 UTC. Time now 2017-Mar-30 16:37 UTC.
Position N 37°58' W 000°41'.
Warning: this ship's position is 28 days out of date.

Length 15 m.

Type: Sailing vessel. MMSI: 245144000.

Date/timePositionNaut miles runAvg speedWind from/ knotsBaromVisibWave heightAir tempDewpointWater temp
2017-Mar-01 18:16N 37°58' W 000°41'0 0.0
2017-Mar-01 17:28N 37°58' W 000°41'0 0.0
2017-Mar-01 16:22N 37°58' W 000°41'0 0.0
2017-Mar-01 15:31N 37°58' W 000°41'0 0.0
2017-Mar-01 14:31N 37°58' W 000°41'0 0.0
2017-Mar-01 13:28N 37°58' W 000°41'0 0.0
2017-Mar-01 12:31N 37°58' W 000°41'0 0.0
2017-Mar-01 11:28N 37°58' W 000°41'0 0.0
2017-Mar-01 10:19N 37°58' W 000°41'0 0.0
2017-Mar-01 09:31N 37°58' W 000°41'0 0.0
2017-Mar-01 08:31N 37°58' W 000°41'0 0.2
2017-Mar-01 07:32N 37°58' W 000°41'0 0.0
2017-Mar-01 05:32N 37°58' W 000°41'0 0.0
2017-Mar-01 04:29N 37°58' W 000°41'0 0.0
2017-Mar-01 03:23N 37°58' W 000°41'0 0.0
2017-Mar-01 02:29N 37°58' W 000°41'0 0.0
2017-Mar-01 01:26N 37°58' W 000°41'0 0.0
2017-Mar-01 00:32N 37°58' W 000°41'0 0.0
2017-Feb-28 23:32N 37°58' W 000°41'0 0.0
2017-Feb-28 22:14N 37°58' W 000°41'0 0.0
2017-Feb-28 21:26N 37°58' W 000°41'0 0.0
2017-Feb-28 20:26N 37°58' W 000°41'5 3.7
2017-Feb-28 19:13N 37°54' W 000°42'5 7.4
2017-Feb-28 18:33N 37°49' W 000°43'7 7.0
2017-Feb-28 17:32N 37°42' W 000°43'  
2017-Feb-26 09:33N 36°12' W 005°12'6 5.7
2017-Feb-26 08:33N 36°09' W 005°18'4 4.2
2017-Feb-26 07:33N 36°07' W 005°22'3 2.7
2017-Feb-26 06:33N 36°10' W 005°22'0 0.0
2017-Feb-26 05:33N 36°10' W 005°22'0 0.0
2017-Feb-26 04:32N 36°10' W 005°22'0 0.0
2017-Feb-26 03:33N 36°10' W 005°22'0 0.0
2017-Feb-26 02:33N 36°10' W 005°22'0 0.0
2017-Feb-26 01:33N 36°10' W 005°22'0 0.0
2017-Feb-26 00:32N 36°10' W 005°22'0 0.0
2017-Feb-25 23:33N 36°10' W 005°22'0 0.0
2017-Feb-25 22:33N 36°10' W 005°22'0 0.0
2017-Feb-25 21:33N 36°10' W 005°22'0 0.0
2017-Feb-25 20:33N 36°10' W 005°22'0 0.0
2017-Feb-25 19:33N 36°10' W 005°22'0 0.0
2017-Feb-25 18:33N 36°10' W 005°22'0 0.0
2017-Feb-25 17:33N 36°10' W 005°22'0 0.0
2017-Feb-25 16:33N 36°10' W 005°22'0 0.0
2017-Feb-25 15:33N 36°10' W 005°22'5 4.8
2017-Feb-25 14:33N 36°05' W 005°23'  

Dump ship's entire track history